Terminal Aerodrome Forecast
Issued by NWS Flagstaff, AZ

Home | Current Version | Previous Version | Text Only | Print | Product List | Glossary On
Versions: 1 2 3 4 5 6 7 8 9 10 11 12 13 14 15 16 17
000
FTUS45 KFGZ 202300
TAFFLG
TAF
KFLG 202330Z 2100/2124 21007KT P6SM BKN060
     FM210200 VRB05KT P6SM FEW080 FEW250
     FM212000 20008G16KT P6SM SCT090 SCT250=

USA.gov is the U.S. government's official web portal to all federal, state and local government web resources and services.